createdAt,value
2023-02-15T00:01:39.097Z,28.29
2023-02-15T00:04:10.045Z,28.33
2023-02-15T00:06:40.128Z,28.36
2023-02-15T00:09:11.561Z,28.39
2023-02-15T00:12:07.772Z,28.42
2023-02-15T00:14:38.015Z,28.49
2023-02-15T00:17:08.119Z,28.51
2023-02-15T00:19:38.190Z,28.54
2023-02-15T00:22:08.671Z,28.59
2023-02-15T00:24:38.656Z,28.67
2023-02-15T00:27:08.593Z,28.70
2023-02-15T00:29:38.669Z,28.69
2023-02-15T00:32:08.689Z,28.70
2023-02-15T00:34:38.698Z,28.68
2023-02-15T00:37:08.823Z,28.77
2023-02-15T00:39:39.099Z,28.90
2023-02-15T00:42:09.305Z,28.92
2023-02-15T00:44:39.334Z,28.89
2023-02-15T00:47:09.338Z,28.85
2023-02-15T00:49:39.461Z,28.85
2023-02-15T00:52:09.493Z,28.85
2023-02-15T00:54:41.104Z,28.86
2023-02-15T00:57:11.134Z,28.88
2023-02-15T00:59:41.116Z,28.88
2023-02-15T01:02:11.155Z,28.89
2023-02-15T01:04:41.174Z,28.90
2023-02-15T01:07:11.322Z,28.91
2023-02-15T01:09:41.520Z,28.91
2023-02-15T01:12:12.246Z,28.93
2023-02-15T01:14:42.276Z,28.94
2023-02-15T01:17:12.229Z,28.94
2023-02-15T01:19:42.356Z,28.94
2023-02-15T01:22:12.313Z,28.96
2023-02-15T01:24:42.514Z,29.00
2023-02-15T01:27:12.513Z,29.00
2023-02-15T01:29:45.986Z,29.00
2023-02-15T01:32:16.067Z,29.01
2023-02-15T01:34:46.571Z,29.03
2023-02-15T01:37:16.759Z,29.02
2023-02-15T01:39:47.069Z,29.04
2023-02-15T01:42:23.308Z,29.04
2023-02-15T01:44:55.044Z,29.06
2023-02-15T01:47:34.812Z,29.07
2023-02-15T01:50:25.031Z,29.09
2023-02-15T01:52:59.642Z,29.11
2023-02-15T01:55:32.059Z,29.13
2023-02-15T01:58:03.178Z,29.14
2023-02-15T02:00:34.432Z,29.17
2023-02-15T02:03:04.779Z,29.18
2023-02-15T02:05:35.845Z,29.20
2023-02-15T02:08:06.015Z,29.22
2023-02-15T02:10:36.014Z,29.25
2023-02-15T02:13:07.560Z,29.26
2023-02-15T02:16:03.071Z,29.26
2023-02-15T02:18:39.365Z,29.30
2023-02-15T02:21:12.156Z,29.30
2023-02-15T02:23:42.228Z,29.32
2023-02-15T02:26:12.399Z,29.34
2023-02-15T02:29:00.807Z,29.35
2023-02-15T02:31:40.235Z,29.37
2023-02-15T02:34:19.511Z,29.39
2023-02-15T02:36:52.525Z,29.40
2023-02-15T02:39:41.063Z,29.43
2023-02-15T02:42:21.129Z,29.46
2023-02-15T02:45:05.078Z,29.47
2023-02-15T02:47:38.650Z,29.50
2023-02-15T02:50:11.826Z,29.50
2023-02-15T02:52:51.824Z,29.53
2023-02-15T02:55:25.789Z,29.56
2023-02-15T02:58:05.170Z,29.57
2023-02-15T03:00:39.063Z,29.59
2023-02-15T03:03:12.448Z,29.62
2023-02-15T03:05:45.728Z,29.64
2023-02-15T03:08:24.150Z,29.66
2023-02-15T03:10:58.004Z,29.69
2023-02-15T03:13:28.197Z,29.70
2023-02-15T03:16:18.010Z,29.72
2023-02-15T03:18:55.090Z,29.74
2023-02-15T03:21:28.570Z,29.76
2023-02-15T03:24:04.234Z,29.79
2023-02-15T03:26:36.621Z,29.80
2023-02-15T03:29:08.818Z,29.83
2023-02-15T03:31:41.660Z,29.85
2023-02-15T03:34:14.400Z,29.89
2023-02-15T03:36:45.034Z,29.91
2023-02-15T03:39:35.562Z,29.93
2023-02-15T03:42:31.869Z,29.96
2023-02-15T03:45:08.629Z,30.00
2023-02-15T03:47:44.859Z,30.02
2023-02-15T03:50:41.742Z,30.03
2023-02-15T03:53:13.401Z,30.06
2023-02-15T03:55:43.610Z,30.08
2023-02-15T03:58:31.938Z,30.11
2023-02-15T04:01:21.805Z,30.13
2023-02-15T04:03:57.940Z,30.16
2023-02-15T04:06:27.928Z,30.18
2023-02-15T04:09:30.111Z,30.22
2023-02-15T04:12:00.420Z,30.25
2023-02-15T04:14:48.735Z,30.26
2023-02-15T04:17:19.230Z,30.29
2023-02-15T04:20:07.844Z,30.32
2023-02-15T04:22:57.043Z,30.33
2023-02-15T04:25:27.263Z,30.37
2023-02-15T04:27:57.809Z,30.39
2023-02-15T04:30:28.986Z,30.41
2023-02-15T04:33:01.038Z,30.43
2023-02-15T04:35:31.272Z,30.44
2023-02-15T04:38:01.512Z,30.46
2023-02-15T04:40:31.698Z,30.48
2023-02-15T04:43:01.711Z,30.49
2023-02-15T04:45:32.031Z,30.52
2023-02-15T04:48:02.538Z,30.52
2023-02-15T04:50:32.687Z,30.53
2023-02-15T04:53:03.038Z,30.56
2023-02-15T04:55:33.272Z,30.56
2023-02-15T04:58:03.414Z,30.57
2023-02-15T05:00:33.702Z,30.60
2023-02-15T05:03:03.974Z,30.30
2023-02-15T05:05:34.273Z,30.63
2023-02-15T05:08:05.814Z,30.64
2023-02-15T05:10:35.844Z,30.64
2023-02-15T05:13:05.888Z,30.65
2023-02-15T05:15:35.894Z,30.67
2023-02-15T05:18:05.998Z,30.68
2023-02-15T05:20:36.555Z,30.69
2023-02-15T05:23:06.603Z,30.71
2023-02-15T05:25:54.562Z,30.72
2023-02-15T05:28:25.454Z,30.76
2023-02-15T05:31:11.022Z,30.80
2023-02-15T05:33:42.322Z,30.82
2023-02-15T05:36:13.030Z,30.84
2023-02-15T05:38:43.194Z,30.86
2023-02-15T05:41:14.011Z,30.89
2023-02-15T05:43:44.181Z,30.91
2023-02-15T05:46:14.761Z,30.93
2023-02-15T05:48:44.860Z,30.95
2023-02-15T05:51:16.634Z,30.98
2023-02-15T05:53:46.811Z,30.99
2023-02-15T05:56:17.065Z,31.01
2023-02-15T05:58:47.464Z,31.03
2023-02-15T06:01:19.817Z,31.06
2023-02-15T06:03:50.892Z,31.07
2023-02-15T06:06:21.273Z,31.09
2023-02-15T06:08:51.675Z,31.11
2023-02-15T06:11:21.753Z,31.12
2023-02-15T06:13:51.779Z,31.14
2023-02-15T06:16:21.827Z,31.15
2023-02-15T06:18:53.743Z,31.16
2023-02-15T06:21:23.974Z,31.21
2023-02-15T06:23:54.057Z,31.23
2023-02-15T06:26:24.264Z,31.25
2023-02-15T06:28:54.278Z,31.27
2023-02-15T06:31:24.356Z,31.29
2023-02-15T06:33:54.465Z,31.32
2023-02-15T06:36:24.476Z,31.35
2023-02-15T06:38:54.582Z,31.38
2023-02-15T06:41:24.687Z,31.40
2023-02-15T06:43:54.801Z,31.43
2023-02-15T06:46:25.005Z,31.46
2023-02-15T06:48:55.335Z,31.51
2023-02-15T06:51:25.410Z,31.54
2023-02-15T06:53:55.499Z,31.56
2023-02-15T06:56:25.876Z,31.60
2023-02-15T06:58:56.043Z,31.61
2023-02-15T07:01:26.092Z,31.65
2023-02-15T07:03:56.358Z,31.68
2023-02-15T07:06:26.858Z,31.70
2023-02-15T07:08:57.005Z,31.73
2023-02-15T07:11:45.356Z,31.75
2023-02-15T07:14:15.386Z,31.78
2023-02-15T07:16:45.470Z,31.80
2023-02-15T07:19:15.484Z,31.83
2023-02-15T07:21:47.854Z,31.85
2023-02-15T07:24:17.903Z,31.88
2023-02-15T07:26:47.959Z,31.90
2023-02-15T07:29:18.318Z,31.93
2023-02-15T07:31:48.438Z,31.95
2023-02-15T07:34:18.858Z,31.98
2023-02-15T07:36:49.533Z,32.02
2023-02-15T07:39:19.694Z,32.04
2023-02-15T07:41:49.649Z,32.09
2023-02-15T07:44:21.305Z,32.13
2023-02-15T07:46:51.707Z,32.15
2023-02-15T07:49:21.747Z,32.19
2023-02-15T07:51:51.784Z,32.21
2023-02-15T07:54:21.828Z,32.23
2023-02-15T07:56:51.875Z,32.26
2023-02-15T07:59:22.285Z,32.29
2023-02-15T08:01:52.274Z,32.32
2023-02-15T08:04:22.438Z,32.35
2023-02-15T08:06:54.549Z,32.38
2023-02-15T08:09:25.455Z,32.42
2023-02-15T08:11:55.651Z,32.44
2023-02-15T08:14:26.001Z,32.49
2023-02-15T08:16:59.923Z,32.53
2023-02-15T08:19:31.845Z,32.56
2023-02-15T08:22:03.640Z,32.59
2023-02-15T08:24:35.182Z,32.64
2023-02-15T08:27:06.517Z,32.67
2023-02-15T08:29:37.718Z,32.69
2023-02-15T08:32:09.360Z,32.72
2023-02-15T08:34:41.592Z,32.75
2023-02-15T08:37:11.942Z,32.78
2023-02-15T08:39:42.037Z,32.81
2023-02-15T08:42:12.233Z,32.84
2023-02-15T08:44:42.507Z,32.87
2023-02-15T08:47:12.577Z,32.89
2023-02-15T08:49:42.926Z,32.94
2023-02-15T08:52:12.948Z,32.97
2023-02-15T08:54:43.047Z,33.00
2023-02-15T08:57:13.279Z,33.04
2023-02-15T08:59:43.740Z,33.07
2023-02-15T09:02:13.903Z,33.11
2023-02-15T09:04:43.958Z,33.12
2023-02-15T09:07:14.111Z,33.17
2023-02-15T09:09:45.367Z,33.20
2023-02-15T09:12:15.475Z,33.24
2023-02-15T09:14:45.615Z,33.27
2023-02-15T09:17:16.167Z,33.30
2023-02-15T09:19:46.231Z,33.13
2023-02-15T09:22:16.262Z,32.96
2023-02-15T09:24:46.235Z,32.83
2023-02-15T09:27:16.318Z,32.33
2023-02-15T09:29:46.984Z,32.67
2023-02-15T09:32:19.943Z,32.65
2023-02-15T09:34:50.971Z,32.61
2023-02-15T09:37:20.994Z,32.58
2023-02-15T09:39:51.259Z,32.58
2023-02-15T09:42:40.209Z,32.55
2023-02-15T09:45:13.098Z,32.74
2023-02-15T09:47:43.737Z,32.91
2023-02-15T09:50:13.714Z,32.87
2023-02-15T09:53:01.756Z,33.09
2023-02-15T09:55:37.924Z,33.17
2023-02-15T09:58:16.873Z,33.22
2023-02-15T10:00:52.709Z,33.26
2023-02-15T10:03:36.994Z,33.29
2023-02-15T10:06:46.620Z,33.32
2023-02-15T10:09:16.812Z,33.36
2023-02-15T10:12:01.173Z,33.36
2023-02-15T10:14:46.219Z,33.36
2023-02-15T10:17:29.645Z,33.38
2023-02-15T10:20:03.391Z,33.38
2023-02-15T10:22:41.664Z,33.40
2023-02-15T10:25:23.538Z,33.40
2023-02-15T10:27:54.086Z,33.38
2023-02-15T10:30:24.200Z,33.38
2023-02-15T10:33:00.612Z,33.38
2023-02-15T10:35:50.510Z,33.37
2023-02-15T10:38:31.273Z,33.28
2023-02-15T10:41:02.282Z,32.93
2023-02-15T10:43:51.287Z,32.75
2023-02-15T10:46:39.518Z,32.59
2023-02-15T10:49:23.064Z,32.48
2023-02-15T10:52:01.818Z,32.43
2023-02-15T10:54:40.570Z,32.35
2023-02-15T10:57:13.580Z,32.29
2023-02-15T11:00:02.110Z,32.26
2023-02-15T11:02:36.624Z,32.17
2023-02-15T11:05:27.247Z,32.11
2023-02-15T11:08:02.435Z,32.09
2023-02-15T11:10:32.771Z,32.03
2023-02-15T11:13:06.566Z,31.97
2023-02-15T11:15:55.449Z,31.96
2023-02-15T11:18:35.523Z,31.95
2023-02-15T11:21:12.204Z,31.92
2023-02-15T11:23:47.201Z,31.93
2023-02-15T11:26:20.022Z,32.15
2023-02-15T11:28:50.676Z,32.28
2023-02-15T11:31:28.222Z,32.36
2023-02-15T11:34:01.599Z,32.42
2023-02-15T11:36:36.088Z,32.46
2023-02-15T11:39:17.777Z,32.53
2023-02-15T11:41:52.593Z,32.54
2023-02-15T11:44:51.532Z,32.57
2023-02-15T11:47:21.863Z,32.58
2023-02-15T11:49:53.241Z,32.58
2023-02-15T11:52:23.403Z,32.59
2023-02-15T11:54:54.511Z,32.58
2023-02-15T11:57:24.552Z,32.58
2023-02-15T12:00:13.847Z,32.58
2023-02-15T12:02:48.207Z,32.59
2023-02-15T12:05:21.489Z,32.57
2023-02-15T12:08:06.492Z,32.55
2023-02-15T12:10:40.681Z,32.53
2023-02-15T12:13:16.219Z,32.53
2023-02-15T12:15:51.579Z,32.52
2023-02-15T12:18:23.734Z,32.52
2023-02-15T12:20:54.175Z,32.49
2023-02-15T12:23:24.629Z,32.39
2023-02-15T12:25:56.863Z,32.26
2023-02-15T12:28:27.181Z,32.15
2023-02-15T12:30:59.150Z,32.05
2023-02-15T12:33:43.397Z,32.00
2023-02-15T12:36:13.514Z,31.96
2023-02-15T12:38:44.158Z,31.92
2023-02-15T12:41:23.353Z,31.89
2023-02-15T12:44:18.134Z,31.82
2023-02-15T12:47:08.497Z,31.81
2023-02-15T12:49:40.075Z,31.77
2023-02-15T12:52:25.326Z,31.75
2023-02-15T12:55:12.200Z,31.50
2023-02-15T12:57:42.422Z,31.66
2023-02-15T13:00:22.126Z,31.65
2023-02-15T13:02:57.257Z,31.53
2023-02-15T13:05:45.497Z,31.31
2023-02-15T13:08:22.980Z,31.10
2023-02-15T13:10:57.461Z,30.96
2023-02-15T13:13:31.280Z,30.84
2023-02-15T13:16:14.411Z,30.70
2023-02-15T13:18:46.925Z,30.58
2023-02-15T13:21:37.328Z,30.46
2023-02-15T13:24:26.659Z,30.35
2023-02-15T13:27:14.586Z,30.24
2023-02-15T13:29:46.947Z,30.16
2023-02-15T13:32:28.332Z,30.10
2023-02-15T13:35:05.346Z,30.08
2023-02-15T13:37:54.729Z,30.03
2023-02-15T13:40:32.680Z,29.93
2023-02-15T13:43:08.260Z,29.80
2023-02-15T13:45:41.246Z,29.76
2023-02-15T13:48:45.635Z,29.68
2023-02-15T13:51:30.833Z,29.64
2023-02-15T13:54:23.879Z,29.57
2023-02-15T13:57:09.542Z,29.54
2023-02-15T13:59:58.701Z,29.49
2023-02-15T14:02:40.336Z,29.43
2023-02-15T14:05:33.826Z,29.38
2023-02-15T14:08:10.043Z,29.32
2023-02-15T14:10:52.111Z,29.28
2023-02-15T14:13:28.270Z,29.22
2023-02-15T14:15:59.946Z,29.30
2023-02-15T14:18:38.684Z,29.30
2023-02-15T14:21:21.362Z,29.29
2023-02-15T14:24:00.700Z,29.29
2023-02-15T14:26:39.278Z,29.29
2023-02-15T14:29:26.989Z,29.25
2023-02-15T14:32:11.178Z,29.19
2023-02-15T14:34:50.164Z,29.16
2023-02-15T14:37:23.796Z,29.11
2023-02-15T14:40:21.986Z,29.09
2023-02-15T14:43:00.147Z,29.04
2023-02-15T14:45:45.226Z,29.03
2023-02-15T14:48:19.843Z,29.00
2023-02-15T14:50:51.023Z,28.96
2023-02-15T14:53:33.267Z,28.95
2023-02-15T14:56:12.986Z,28.90
2023-02-15T14:58:52.264Z,28.87
2023-02-15T15:01:30.556Z,28.83
2023-02-15T15:04:27.068Z,28.78
2023-02-15T15:07:15.152Z,28.78
2023-02-15T15:09:46.402Z,28.74
2023-02-15T15:12:25.662Z,28.74
2023-02-15T15:14:56.643Z,28.71
2023-02-15T15:17:36.356Z,28.71
2023-02-15T15:20:09.692Z,28.69
2023-02-15T15:22:40.028Z,28.67
2023-02-15T15:25:13.038Z,28.63
2023-02-15T15:27:55.643Z,28.60
2023-02-15T15:30:25.770Z,28.56
2023-02-15T15:32:59.194Z,28.51
2023-02-15T15:35:47.577Z,28.50
2023-02-15T15:38:36.034Z,28.48
2023-02-15T15:41:08.883Z,28.47
2023-02-15T15:43:51.190Z,28.45
2023-02-15T15:46:24.508Z,28.43
2023-02-15T15:48:55.612Z,28.41
2023-02-15T15:51:32.049Z,28.40
2023-02-15T15:54:04.420Z,28.37
2023-02-15T15:56:38.630Z,28.37
2023-02-15T15:59:14.660Z,28.35
2023-02-15T16:01:45.962Z,28.33
2023-02-15T16:04:24.634Z,28.34
2023-02-15T16:06:55.593Z,28.31
2023-02-15T16:09:27.038Z,28.29
2023-02-15T16:12:03.947Z,28.28
2023-02-15T16:14:41.997Z,28.23
2023-02-15T16:17:20.122Z,28.23
2023-02-15T16:19:50.242Z,28.21
2023-02-15T16:22:29.030Z,28.21
2023-02-15T16:25:11.861Z,28.18
2023-02-15T16:27:49.093Z,28.16
2023-02-15T16:30:26.986Z,28.14
2023-02-15T16:33:08.018Z,28.12
2023-02-15T16:35:39.710Z,28.12
2023-02-15T16:38:15.661Z,28.11
2023-02-15T16:40:53.383Z,28.07
2023-02-15T16:43:27.380Z,28.03
2023-02-15T16:46:05.105Z,28.03
2023-02-15T16:48:36.911Z,28.01
2023-02-15T16:51:07.006Z,28.00
2023-02-15T16:53:37.588Z,27.96
2023-02-15T16:56:08.127Z,27.91
2023-02-15T16:58:44.961Z,27.87
2023-02-15T17:01:17.504Z,27.83
2023-02-15T17:03:50.788Z,27.81
2023-02-15T17:06:25.403Z,27.76
2023-02-15T17:09:05.309Z,27.73
2023-02-15T17:11:39.656Z,27.72
2023-02-15T17:14:12.826Z,27.70
2023-02-15T17:17:12.143Z,27.64
2023-02-15T17:19:56.078Z,27.63
2023-02-15T17:22:29.436Z,27.59
2023-02-15T17:25:01.614Z,27.64
2023-02-15T17:27:34.190Z,27.67
2023-02-15T17:30:17.024Z,27.65
2023-02-15T17:32:57.914Z,27.60
2023-02-15T17:35:29.732Z,27.60
2023-02-15T17:38:22.601Z,27.62
2023-02-15T17:40:52.708Z,27.60
2023-02-15T17:43:22.980Z,27.60
2023-02-15T17:45:53.865Z,27.55
2023-02-15T17:48:33.311Z,27.55
2023-02-15T17:51:04.589Z,27.54
2023-02-15T17:53:35.572Z,27.53
2023-02-15T17:56:14.310Z,27.53
2023-02-15T17:58:44.302Z,27.52
2023-02-15T18:01:37.478Z,27.49
2023-02-15T18:04:26.265Z,27.49
2023-02-15T18:07:14.627Z,27.47
2023-02-15T18:10:03.456Z,27.43
2023-02-15T18:12:35.282Z,27.40
2023-02-15T18:15:05.546Z,27.36
2023-02-15T18:17:55.715Z,27.40
2023-02-15T18:20:51.695Z,27.32
2023-02-15T18:23:21.680Z,27.32
2023-02-15T18:25:51.883Z,27.30
2023-02-15T18:28:22.955Z,27.30
2023-02-15T18:30:52.949Z,27.28
2023-02-15T18:33:32.177Z,27.26
2023-02-15T18:36:03.799Z,27.24
2023-02-15T18:38:33.877Z,27.25
2023-02-15T18:41:05.346Z,27.23
2023-02-15T18:43:35.805Z,27.18
2023-02-15T18:46:06.016Z,27.17
2023-02-15T18:48:36.506Z,27.14
2023-02-15T18:51:09.576Z,27.16
2023-02-15T18:53:39.938Z,27.14
2023-02-15T18:56:16.371Z,27.11
2023-02-15T18:58:49.238Z,27.12
2023-02-15T19:01:20.752Z,27.09
2023-02-15T19:03:51.986Z,27.05
2023-02-15T19:06:24.423Z,27.06
2023-02-15T19:08:54.987Z,27.04
2023-02-15T19:11:28.539Z,27.01
2023-02-15T19:13:59.383Z,26.98
2023-02-15T19:16:36.486Z,26.96
2023-02-15T19:19:07.440Z,26.95
2023-02-15T19:21:37.481Z,26.93
2023-02-15T19:24:10.040Z,26.93
2023-02-15T19:26:45.733Z,26.95
2023-02-15T19:29:17.666Z,26.94
2023-02-15T19:31:47.772Z,26.93
2023-02-15T19:34:19.009Z,26.92
2023-02-15T19:36:50.495Z,26.94
2023-02-15T19:39:37.056Z,26.93
2023-02-15T19:42:07.185Z,26.92
2023-02-15T19:44:37.152Z,26.91
2023-02-15T19:47:07.535Z,26.92
2023-02-15T19:49:37.512Z,26.89
2023-02-15T19:52:07.913Z,26.87
2023-02-15T19:54:38.462Z,26.84
2023-02-15T19:57:10.726Z,26.84
2023-02-15T19:59:41.403Z,26.82
2023-02-15T20:02:19.470Z,26.81
2023-02-15T20:04:49.889Z,26.78
2023-02-15T20:07:27.821Z,26.78
2023-02-15T20:09:57.983Z,26.74
2023-02-15T20:12:30.026Z,26.76
2023-02-15T20:15:00.287Z,26.74
2023-02-15T20:17:30.480Z,26.70
2023-02-15T20:20:00.542Z,26.70
2023-02-15T20:22:31.023Z,26.70
2023-02-15T20:25:01.268Z,26.66
2023-02-15T20:27:31.376Z,26.64
2023-02-15T20:30:01.847Z,26.61
2023-02-15T20:32:32.749Z,26.59
2023-02-15T20:35:05.300Z,26.59
2023-02-15T20:37:35.596Z,26.56
2023-02-15T20:40:14.447Z,26.58
2023-02-15T20:42:44.734Z,26.56
2023-02-15T20:45:33.668Z,26.59
2023-02-15T20:48:03.687Z,26.58
2023-02-15T20:50:34.799Z,26.54
2023-02-15T20:53:05.126Z,26.56
2023-02-15T20:55:35.297Z,26.56
2023-02-15T20:58:16.624Z,26.58
2023-02-15T21:00:47.004Z,26.67
2023-02-15T21:03:23.679Z,26.74
2023-02-15T21:05:53.696Z,26.82
2023-02-15T21:08:24.509Z,26.86
2023-02-15T21:10:55.311Z,26.82
2023-02-15T21:13:27.511Z,26.76
2023-02-15T21:15:59.410Z,26.71
2023-02-15T21:18:34.604Z,26.67
2023-02-15T21:21:06.132Z,26.67
2023-02-15T21:23:40.933Z,26.64
2023-02-15T21:26:19.449Z,26.60
2023-02-15T21:28:50.278Z,26.53
2023-02-15T21:31:24.654Z,26.53
2023-02-15T21:33:55.334Z,26.52
2023-02-15T21:36:26.758Z,26.59
2023-02-15T21:38:57.516Z,26.68
2023-02-15T21:41:46.949Z,26.73
2023-02-15T21:44:35.703Z,26.82
2023-02-15T21:47:24.467Z,26.82
2023-02-15T21:49:54.670Z,26.74
2023-02-15T21:52:25.482Z,26.71
2023-02-15T21:54:56.259Z,26.65
2023-02-15T21:57:26.310Z,26.64
2023-02-15T21:59:56.319Z,26.58
2023-02-15T22:02:30.570Z,26.53
2023-02-15T22:05:00.913Z,26.54
2023-02-15T22:07:31.448Z,26.57
2023-02-15T22:10:01.483Z,25.76
2023-02-15T22:12:31.627Z,26.70
2023-02-15T22:15:03.291Z,26.78
2023-02-15T22:17:35.909Z,26.81
2023-02-15T22:20:14.756Z,26.80
2023-02-15T22:22:44.786Z,26.73
2023-02-15T22:25:16.542Z,26.67
2023-02-15T22:27:47.467Z,26.63
2023-02-15T22:30:29.002Z,26.55
2023-02-15T22:33:01.076Z,26.50
2023-02-15T22:35:32.536Z,26.52
2023-02-15T22:38:02.899Z,26.59
2023-02-15T22:40:34.414Z,26.66
2023-02-15T22:43:05.685Z,26.73
2023-02-15T22:45:37.695Z,26.53
2023-02-15T22:48:08.021Z,26.82
2023-02-15T22:50:38.141Z,26.81
2023-02-15T22:53:08.501Z,26.74
2023-02-15T22:55:39.192Z,26.69
2023-02-15T22:58:09.299Z,26.64
2023-02-15T23:00:41.162Z,26.57
2023-02-15T23:03:19.283Z,26.63
2023-02-15T23:05:49.401Z,26.76
2023-02-15T23:08:19.778Z,26.87
2023-02-15T23:10:53.350Z,26.98
2023-02-15T23:13:32.680Z,27.06
2023-02-15T23:16:04.850Z,27.15
2023-02-15T23:18:39.973Z,27.24
2023-02-15T23:21:29.176Z,27.32
2023-02-15T23:24:17.616Z,27.40
2023-02-15T23:26:48.048Z,27.47
2023-02-15T23:29:19.970Z,27.52
2023-02-15T23:31:54.969Z,27.59
2023-02-15T23:34:30.507Z,27.65
2023-02-15T23:37:00.636Z,27.70
2023-02-15T23:39:48.931Z,27.75
2023-02-15T23:42:19.021Z,27.80
2023-02-15T23:44:50.223Z,27.84
2023-02-15T23:47:44.224Z,27.94
2023-02-15T23:50:21.720Z,28.00
2023-02-15T23:52:52.406Z,28.05
2023-02-15T23:55:22.854Z,28.10
2023-02-15T23:57:53.367Z,28.14
